Time;durP1;ratioP1;P1;durP2;ratioP2;P2;SDS_P1;SDS_P2;PMS_P1;PMS_P2;Temp;Humidity;BMP_temperature;BMP_pressure;BME280_temperature;BME280_humidity;BME280_pressure;Samples;Min_cycle;Max_cycle;Signal;HPM_P1;HPM_P2
2021/03/25 00:01:29;;;;;;;34.95;20.67;;;;;;;1.38;72.45;100900.97;6129941;23;20041;-58
2021/03/25 00:03:55;;;;;;;37.08;21.80;;;;;;;1.41;72.32;100905.03;6130070;23;20089;-59
2021/03/25 00:06:22;;;;;;;33.38;19.98;;;;;;;1.38;72.16;100908.47;6129848;23;20002;-58
2021/03/25 00:08:48;;;;;;;34.83;20.48;;;;;;;1.38;72.03;100908.47;6129993;23;20012;-58
2021/03/25 00:11:13;;;;;;;35.38;20.70;;;;;;;1.31;71.66;100906.16;6130116;23;20002;-58
2021/03/25 00:13:39;;;;;;;37.83;20.33;;;;;;;1.19;71.57;100909.63;6129644;23;20001;-57
2021/03/25 00:16:05;;;;;;;34.70;19.83;;;;;;;1.07;72.09;100903.09;6130089;23;20006;-57
2021/03/25 00:18:32;;;;;;;34.92;21.23;;;;;;;0.97;71.72;100900.66;6129969;23;20076;-58
2021/03/25 00:20:57;;;;;;;34.03;19.73;;;;;;;0.85;72.44;100904.91;6129852;23;20013;-60
2021/03/25 00:23:23;;;;;;;38.47;22.15;;;;;;;0.76;72.67;100890.22;6130070;23;20009;-58
2021/03/25 00:25:48;;;;;;;37.78;20.67;;;;;;;0.66;72.93;100896.09;6130255;23;20389;-58
2021/03/25 00:28:16;;;;;;;32.50;19.65;;;;;;;0.60;73.18;100897.41;6129781;23;20010;-59
2021/03/25 00:30:42;;;;;;;42.85;23.77;;;;;;;0.64;73.52;100884.53;6130013;23;20013;-58
2021/03/25 00:33:10;;;;;;;45.17;25.48;;;;;;;0.73;73.03;100890.06;6130236;23;20461;-58
2021/03/25 00:35:36;;;;;;;51.72;27.08;;;;;;;0.80;73.17;100879.31;6128549;23;20090;-58
2021/03/25 00:38:02;;;;;;;51.83;28.92;;;;;;;0.83;72.92;100895.31;6129633;23;20084;-60
2021/03/25 00:40:28;;;;;;;41.67;22.80;;;;;;;0.86;72.58;100884.41;6129932;23;20005;-59
2021/03/25 00:42:54;;;;;;;49.60;25.02;;;;;;;0.90;72.37;100893.69;6129672;23;20260;-60
2021/03/25 00:45:24;;;;;;;42.85;23.17;;;;;;;0.92;72.32;100887.81;6129754;23;20055;-58
2021/03/25 00:47:49;;;;;;;42.50;23.17;;;;;;;0.93;72.30;100893.00;6129673;23;20029;-61
2021/03/25 00:50:23;;;;;;;42.83;21.42;;;;;;;0.95;72.36;100887.16;6129830;23;20369;-57
2021/03/25 00:52:48;;;;;;;40.08;22.05;;;;;;;0.95;72.08;100884.38;6129850;23;20085;-58
2021/03/25 00:55:14;;;;;;;37.95;21.85;;;;;;;0.92;71.79;100883.09;6129627;23;20034;-58
2021/03/25 00:57:39;;;;;;;41.47;21.40;;;;;;;0.92;71.74;100891.38;6129790;23;20005;-60
2021/03/25 01:00:05;;;;;;;35.00;20.58;;;;;;;0.90;71.71;100890.09;6129429;23;20381;-59
2021/03/25 01:02:31;;;;;;;36.78;21.48;;;;;;;0.87;71.79;100902.63;6129708;23;20006;-56
2021/03/25 01:04:56;;;;;;;36.15;20.02;;;;;;;0.85;71.87;100895.78;6129433;23;20092;-60
2021/03/25 01:07:28;;;;;;;33.25;19.67;;;;;;;0.84;72.14;100889.44;6129561;23;20005;-57
2021/03/25 01:09:53;;;;;;;40.38;21.77;;;;;;;0.81;71.75;100890.06;6129541;23;20018;-58
2021/03/25 01:12:19;;;;;;;39.80;22.02;;;;;;;0.75;71.84;100891.38;6129760;23;20001;-57
2021/03/25 01:14:45;;;;;;;38.53;21.65;;;;;;;0.68;71.03;100885.53;6129736;23;20021;-63
2021/03/25 01:17:11;;;;;;;45.88;24.52;;;;;;;0.56;71.41;100891.69;6129612;23;20406;-63
2021/03/25 01:19:36;;;;;;;42.72;24.08;;;;;;;0.42;71.95;100890.19;6131282;23;20002;-63
2021/03/25 01:22:03;;;;;;;46.72;25.48;;;;;;;0.28;72.23;100891.16;6131444;23;20363;-63
2021/03/25 01:24:29;;;;;;;41.78;24.85;;;;;;;0.17;72.33;100887.03;6131671;23;20077;-63
2021/03/25 01:26:54;;;;;;;39.75;24.17;;;;;;;0.08;72.24;100885.41;6131548;23;20006;-63
2021/03/25 01:29:21;;;;;;;39.22;22.73;;;;;;;0.07;72.36;100884.59;6131390;23;20016;-64
2021/03/25 01:31:47;;;;;;;40.38;24.13;;;;;;;0.13;72.72;100882.47;6131680;23;20002;-56
2021/03/25 01:34:15;;;;;;;43.67;24.13;;;;;;;0.15;72.49;100886.56;6131383;23;20002;-58
2021/03/25 01:36:41;;;;;;;41.22;23.02;;;;;;;0.07;72.62;100873.53;6131402;23;20013;-56
2021/03/25 01:39:06;;;;;;;35.55;22.15;;;;;;;-0.02;71.56;100880.97;6131511;23;20381;-58
2021/03/25 01:41:35;;;;;;;43.28;23.80;;;;;;;-0.08;72.34;100882.25;6131567;23;20018;-58
2021/03/25 01:44:02;;;;;;;44.05;23.52;;;;;;;-0.14;72.49;100878.00;6131455;23;19998;-58
2021/03/25 01:46:31;;;;;;;41.60;22.45;;;;;;;-0.21;71.90;100883.19;6131397;23;20006;-55
2021/03/25 01:49:05;;;;;;;40.92;23.00;;;;;;;-0.31;70.98;100879.53;6131238;23;20006;-57
2021/03/25 01:51:48;;;;;;;45.05;25.65;;;;;;;-0.38;71.93;100878.38;6105481;23;20002;-58
2021/03/25 01:54:41;;;;;;;42.75;24.73;;;;;;;-0.41;73.42;100874.31;6131544;23;20006;-58
2021/03/25 01:57:45;;;;;;;41.97;24.65;;;;;;;-0.45;72.93;100870.56;6131474;23;20006;-57
2021/03/25 02:00:20;;;;;;;42.72;23.73;;;;;;;-0.50;73.80;100887.25;6125512;23;20010;-57
2021/03/25 02:02:59;;;;;;;44.88;23.75;;;;;;;-0.57;73.07;100878.59;6131053;23;20366;-58
2021/03/25 02:05:43;;;;;;;44.50;24.42;;;;;;;-0.65;72.38;100873.84;6131293;23;20013;-58
2021/03/25 02:08:27;;;;;;;48.03;25.35;;;;;;;-0.71;72.21;100870.41;6131276;23;20002;-58
2021/03/25 02:11:20;;;;;;;45.00;26.65;;;;;;;-0.77;72.47;100873.63;6131277;23;20100;-58
2021/03/25 02:14:19;;;;;;;49.22;27.40;;;;;;;-0.83;73.13;100872.91;6130886;23;20010;-59
2021/03/25 02:17:03;;;;;;;53.13;27.77;;;;;;;-0.86;73.38;100876.28;6130804;23;20321;-59
2021/03/25 02:20:06;;;;;;;53.67;27.55;;;;;;;-0.89;73.68;100876.13;6105449;23;20008;-59
2021/03/25 02:22:50;;;;;;;44.67;25.17;;;;;;;-0.92;73.68;100872.03;6131002;23;20002;-58
2021/03/25 02:25:20;;;;;;;54.75;28.10;;;;;;;-0.95;72.89;100878.19;6130902;23;19998;-63
2021/03/25 02:28:16;;;;;;;51.20;26.98;;;;;;;-0.97;72.89;100874.94;6131307;23;20240;-63
2021/03/25 02:30:45;;;;;;;49.65;27.02;;;;;;;-0.98;73.42;100865.03;6128180;23;20148;-54
2021/03/25 02:33:20;;;;;;;57.30;29.17;;;;;;;-0.99;72.48;100864.22;6130706;23;20005;-57
2021/03/25 02:35:57;;;;;;;50.25;27.52;;;;;;;-0.99;73.00;100863.41;6131033;23;20010;-62
2021/03/25 02:38:54;;;;;;;49.58;27.80;;;;;;;-0.99;72.58;100869.72;6131119;23;20006;-56
2021/03/25 02:41:54;;;;;;;46.63;26.85;;;;;;;-1.01;73.02;100871.97;6128128;23;20077;-57
2021/03/25 02:44:36;;;;;;;51.83;29.33;;;;;;;-1.02;72.89;100870.34;6113969;23;20014;-57
2021/03/25 02:47:07;;;;;;;;;;;;;;;-1.09;72.27;100870.00;6131126;23;20021;-57
2021/03/25 02:49:39;;;;;;;;;;;;;;;-1.14;72.27;100872.03;6131140;23;19931;-58
2021/03/25 02:52:23;;;;;;;54.72;29.00;;;;;;;-1.21;72.83;100866.94;6130935;23;19905;-58
2021/03/25 02:54:50;;;;;;;53.40;27.13;;;;;;;-1.24;72.88;100881.38;6130557;23;20080;-57
2021/03/25 02:57:27;;;;;;;52.63;29.02;;;;;;;-1.28;72.97;100883.13;6130746;23;20052;-56
2021/03/25 03:00:00;;;;;;;56.63;29.25;;;;;;;-1.30;72.92;100882.63;6130517;23;20374;-58
2021/03/25 03:02:38;;;;;;;55.70;28.92;;;;;;;-1.23;73.73;100891.28;6130897;23;20002;-58
2021/03/25 03:05:15;;;;;;;49.45;25.92;;;;;;;-1.15;73.30;100884.19;6104809;23;20005;-58
2021/03/25 03:07:49;;;;;;;58.13;26.80;;;;;;;-1.12;72.17;100886.31;6130774;23;20271;-56
2021/03/25 03:10:22;;;;;;;50.47;27.17;;;;;;;-1.11;71.94;100880.50;6130617;23;20052;-58
2021/03/25 03:12:51;;;;;;;54.63;27.27;;;;;;;-1.07;72.18;100884.28;6130652;23;20010;-55
2021/03/25 03:15:27;;;;;;;51.78;24.27;;;;;;;-1.08;71.20;100888.16;6130222;23;20008;-62
2021/03/25 03:18:05;;;;;;;59.00;31.58;;;;;;;-1.05;71.45;100893.06;6130541;23;20005;-57
2021/03/25 03:20:39;;;;;;;45.70;24.38;;;;;;;-1.02;71.19;100892.44;6129291;23;20081;-57
2021/03/25 03:23:04;;;;;;;46.08;24.63;;;;;;;-1.10;70.87;100895.91;6130721;23;20298;-57
2021/03/25 03:25:30;;;;;;;46.95;23.45;;;;;;;-1.11;71.54;100897.03;6130811;23;20006;-58
2021/03/25 03:28:02;;;;;;;45.60;24.15;;;;;;;-1.10;71.44;100904.19;6130330;23;20271;-62
2021/03/25 03:30:56;;;;;;;42.42;23.23;;;;;;;-1.08;71.56;100907.47;6130093;23;20009;-58
2021/03/25 03:33:31;;;;;;;37.28;22.05;;;;;;;-1.13;71.03;100904.81;6130429;23;20013;-56
2021/03/25 03:36:04;;;;;;;44.45;24.42;;;;;;;-1.23;71.00;100899.56;6130424;23;20014;-60
2021/03/25 03:38:33;;;;;;;54.38;24.88;;;;;;;-1.27;71.88;100902.13;6130413;23;20013;-59
2021/03/25 03:41:00;;;;;;;43.80;24.17;;;;;;;-1.20;71.91;100904.44;6129554;23;20026;-58
2021/03/25 03:43:27;;;;;;;43.40;24.48;;;;;;;-1.14;72.54;100905.13;6130498;23;20009;-57
2021/03/25 03:46:04;;;;;;;37.65;22.77;;;;;;;-1.10;71.21;100912.47;6130011;23;20111;-55
2021/03/25 03:48:42;;;;;;;46.03;25.58;;;;;;;-1.12;70.54;100908.41;6130216;23;20106;-57
2021/03/25 03:51:12;;;;;;;41.67;23.95;;;;;;;-1.12;71.42;100920.25;6130308;23;20002;-58
2021/03/25 03:53:39;;;;;;;42.95;24.33;;;;;;;-1.11;71.26;100919.13;6130090;23;20006;-57
2021/03/25 03:56:21;;;;;;;44.30;23.88;;;;;;;-1.13;70.60;100918.63;6104373;23;20034;-55
2021/03/25 03:58:47;;;;;;;;;;;;;;;-1.25;70.46;100918.34;6130426;23;20110;-58
2021/03/25 04:01:22;;;;;;;46.63;22.95;;;;;;;-1.39;71.98;100918.38;6130502;23;19909;-56
2021/03/25 04:03:49;;;;;;;40.13;23.67;;;;;;;-1.49;72.24;100915.03;6130227;23;20010;-57
2021/03/25 04:06:31;;;;;;;44.17;24.25;;;;;;;-1.51;72.24;100917.28;6104239;23;20013;-57
2021/03/25 04:09:06;;;;;;;50.85;24.58;;;;;;;-1.62;72.05;100916.72;6130147;23;20001;-61
2021/03/25 04:11:40;;;;;;;41.70;23.92;;;;;;;-1.70;72.33;100918.22;6129833;23;20002;-57
2021/03/25 04:14:24;;;;;;;43.00;23.55;;;;;;;-1.79;71.88;100916.50;6129869;23;20088;-57
2021/03/25 04:17:02;;;;;;;45.33;25.20;;;;;;;-1.88;72.19;100930.19;6129791;23;20006;-63
2021/03/25 04:19:40;;;;;;;44.05;24.20;;;;;;;-1.94;72.75;100932.22;6130449;23;20024;-57
2021/03/25 04:22:10;;;;;;;50.92;26.77;;;;;;;-1.95;73.24;100924.25;6129908;23;20002;-61
2021/03/25 04:24:43;;;;;;;57.50;30.02;;;;;;;-1.98;73.18;100927.63;6130095;23;20002;-58
2021/03/25 04:27:17;;;;;;;56.08;28.25;;;;;;;-2.01;73.70;100920.78;6130065;23;20240;-57
2021/03/25 04:29:52;;;;;;;51.03;25.98;;;;;;;-2.03;73.40;100924.97;6129718;23;20005;-57
2021/03/25 04:32:17;;;;;;;54.50;29.92;;;;;;;-2.05;73.82;100919.78;6129948;23;20002;-57
2021/03/25 04:34:43;;;;;;;57.00;29.63;;;;;;;-2.08;73.58;100934.16;6129653;23;20012;-55
2021/03/25 04:37:09;;;;;;;53.83;27.85;;;;;;;-2.12;73.78;100929.56;6130187;23;20009;-57
2021/03/25 04:39:38;;;;;;;51.85;28.20;;;;;;;-2.19;73.42;100936.31;6129961;23;20006;-58
2021/03/25 04:42:06;;;;;;;67.38;32.70;;;;;;;-2.18;73.76;100934.38;6127520;23;20052;-57
2021/03/25 04:44:45;;;;;;;63.70;32.63;;;;;;;-2.13;74.26;100936.19;6128943;23;19998;-58
2021/03/25 04:47:25;;;;;;;87.32;39.65;;;;;;;-2.11;74.22;100936.72;6128996;23;20424;-59
2021/03/25 04:50:02;;;;;;;82.15;38.60;;;;;;;-2.08;74.50;100938.84;6129347;23;20005;-58
2021/03/25 04:52:30;;;;;;;87.60;40.05;;;;;;;-2.08;74.36;100938.84;6129190;23;20033;-58
2021/03/25 04:55:06;;;;;;;90.38;39.83;;;;;;;-2.04;74.61;100937.13;6130023;23;20258;-59
2021/03/25 04:57:35;;;;;;;81.35;40.13;;;;;;;-2.00;74.85;100935.38;6128998;23;20046;-57
2021/03/25 05:00:08;;;;;;;80.05;39.55;;;;;;;-1.96;75.49;100939.16;6129288;23;20006;-63
2021/03/25 05:02:35;;;;;;;84.15;42.92;;;;;;;-1.87;75.54;100946.41;6129440;23;20105;-61
2021/03/25 05:05:01;;;;;;;80.43;40.25;;;;;;;-1.71;75.71;100954.38;6129478;23;20002;-62
2021/03/25 05:07:30;;;;;;;82.45;40.08;;;;;;;-1.59;74.98;100941.72;6129371;23;20053;-57
2021/03/25 05:09:56;;;;;;;97.25;46.40;;;;;;;-1.44;75.37;100939.75;6129673;23;20002;-61
2021/03/25 05:12:24;;;;;;;108.07;53.20;;;;;;;-1.34;76.17;100945.06;6129850;23;20053;-57
2021/03/25 05:14:58;;;;;;;101.43;52.22;;;;;;;-1.22;76.01;100950.84;6129388;23;20009;-57
2021/03/25 05:17:41;;;;;;;98.40;52.10;;;;;;;-1.13;75.83;100948.97;6129222;23;20006;-60
2021/03/25 05:20:35;;;;;;;117.07;54.03;;;;;;;-1.05;76.31;100953.75;6129015;23;20010;-61
2021/03/25 05:23:16;;;;;;;95.78;46.78;;;;;;;-0.94;76.59;100943.28;6129236;23;20005;-62
2021/03/25 05:26:00;;;;;;;104.70;50.03;;;;;;;-0.86;76.25;100939.78;6129609;23;19994;-57
2021/03/25 05:28:34;;;;;;;96.75;46.67;;;;;;;-0.74;76.69;100953.03;6103540;23;20389;-57
2021/03/25 05:31:01;;;;;;;77.68;40.92;;;;;;;-0.63;77.15;100948.88;6129063;23;20013;-56
2021/03/25 05:33:31;;;;;;;76.53;39.08;;;;;;;-0.50;76.94;100953.53;6129206;23;20068;-59
2021/03/25 05:36:04;;;;;;;95.30;47.67;;;;;;;-0.40;77.36;100942.22;6128951;23;20101;-59
2021/03/25 05:38:30;;;;;;;130.20;65.35;;;;;;;-0.33;77.09;100942.56;6129324;23;20243;-58
2021/03/25 05:41:08;;;;;;;103.25;50.05;;;;;;;-0.23;77.43;100941.50;6128393;23;20045;-63
2021/03/25 05:44:17;;;;;;;88.10;45.53;;;;;;;-0.09;77.18;100935.88;6129569;23;20026;-62
2021/03/25 05:46:53;;;;;;;96.68;46.35;;;;;;;0.05;77.19;100935.78;6129489;23;20010;-58
2021/03/25 05:49:35;;;;;;;87.00;45.63;;;;;;;0.19;77.41;100931.78;6128513;23;20029;-63
2021/03/25 05:52:38;;;;;;;65.43;34.45;;;;;;;0.34;76.49;100938.81;6129774;23;20010;-62
2021/03/25 05:55:31;;;;;;;178.98;67.95;;;;;;;0.45;76.74;100933.81;6128911;23;20476;-57
2021/03/25 05:58:11;;;;;;;90.68;41.30;;;;;;;0.59;76.87;100928.97;6128948;23;20006;-59
2021/03/25 06:01:02;;;;;;;64.32;34.63;;;;;;;0.72;76.33;100939.06;6129137;23;20359;-59
2021/03/25 06:03:28;;;;;;;65.13;34.15;;;;;;;0.83;75.81;100936.81;6129309;23;20049;-59
2021/03/25 06:05:56;;;;;;;80.13;41.88;;;;;;;0.91;75.16;100942.34;6129961;23;20006;-58
2021/03/25 06:08:27;;;;;;;73.57;38.58;;;;;;;0.98;74.79;100941.03;6130515;23;20006;-58
2021/03/25 06:11:03;;;;;;;95.78;44.45;;;;;;;1.05;74.70;100957.97;6127744;23;20275;-58
2021/03/25 06:13:37;;;;;;;94.20;42.75;;;;;;;1.11;74.82;100963.06;6127851;23;20017;-58
2021/03/25 06:16:16;;;;;;;82.50;42.55;;;;;;;1.20;74.57;100968.59;6130487;23;20076;-58
2021/03/25 06:18:57;;;;;;;87.60;45.20;;;;;;;1.28;74.62;100970.53;6131234;23;20355;-58
2021/03/25 06:21:56;;;;;;;96.53;48.87;;;;;;;1.34;74.55;100965.63;6131158;23;20017;-58
2021/03/25 06:24:33;;;;;;;90.45;48.53;;;;;;;1.38;74.59;100966.63;6130882;23;20010;-58
2021/03/25 06:27:33;;;;;;;130.95;57.53;;;;;;;1.43;74.69;100967.28;6131090;23;20009;-57
2021/03/25 06:30:08;;;;;;;180.20;79.10;;;;;;;1.49;74.58;100974.28;6066914;23;20053;-59
2021/03/25 06:32:51;;;;;;;138.73;66.68;;;;;;;1.54;74.56;100982.41;6130817;23;20006;-58
2021/03/25 06:35:23;;;;;;;110.88;57.88;;;;;;;1.59;74.21;100981.41;6130784;23;20009;-57
2021/03/25 06:37:56;;;;;;;106.32;54.03;;;;;;;1.65;74.40;100990.41;6130949;23;20010;-58
2021/03/25 06:40:45;;;;;;;101.88;50.53;;;;;;;1.71;74.34;101000.16;6130204;23;19997;-52
2021/03/25 06:43:23;;;;;;;100.93;51.80;;;;;;;1.75;74.20;100992.81;6130733;23;20042;-60
2021/03/25 06:46:06;;;;;;;94.85;49.10;;;;;;;1.77;74.37;100993.31;6130850;23;20006;-58
2021/03/25 06:48:48;;;;;;;91.78;46.38;;;;;;;1.80;74.22;100992.66;6130799;23;20026;-56
2021/03/25 06:51:13;;;;;;;92.60;44.33;;;;;;;1.82;74.24;100985.63;6131183;23;20029;-61
2021/03/25 06:53:38;;;;;;;79.93;42.83;;;;;;;1.86;74.22;100994.09;6130329;23;20267;-62
2021/03/25 06:56:15;;;;;;;77.50;42.72;;;;;;;1.90;73.99;100995.06;6130681;23;20013;-61
2021/03/25 06:58:50;;;;;;;79.88;40.78;;;;;;;1.94;74.12;101001.59;6130892;23;20002;-60
2021/03/25 07:01:34;;;;;;;61.17;33.85;;;;;;;1.99;73.72;101004.19;6130680;23;20055;-61
2021/03/25 07:04:07;;;;;;;59.15;33.22;;;;;;;2.02;73.97;101000.75;6130797;23;20010;-61
2021/03/25 07:06:35;;;;;;;59.08;31.35;;;;;;;2.07;73.57;101003.34;6130899;23;20010;-61
2021/03/25 07:09:00;;;;;;;68.78;37.90;;;;;;;2.13;73.19;101010.34;6130392;23;20002;-60
2021/03/25 07:11:28;;;;;;;59.75;33.85;;;;;;;2.18;72.97;101010.16;6130452;23;20006;-60
2021/03/25 07:14:03;;;;;;;53.90;31.73;;;;;;;2.25;72.92;101006.06;6130690;23;20053;-61
2021/03/25 07:16:32;;;;;;;59.55;32.58;;;;;;;2.32;73.27;101012.72;6104299;23;20033;-60
2021/03/25 07:19:11;;;;;;;57.28;33.67;;;;;;;2.37;73.02;101018.09;6130818;23;20006;-60
2021/03/25 07:21:43;;;;;;;58.92;33.85;;;;;;;2.44;73.18;101026.72;6129089;23;20002;-55
2021/03/25 07:24:34;;;;;;;61.83;32.65;;;;;;;2.52;72.82;101024.25;6130691;23;20065;-57
2021/03/25 07:27:10;;;;;;;66.15;32.75;;;;;;;2.60;72.97;101017.84;6130524;23;20107;-59
2021/03/25 07:29:38;;;;;;;72.63;31.67;;;;;;;2.65;72.85;101021.22;6130168;23;20056;-57
2021/03/25 07:32:06;;;;;;;76.85;34.45;;;;;;;2.71;72.73;101022.66;6130467;23;20006;-59
2021/03/25 07:34:45;;;;;;;64.75;32.15;;;;;;;2.76;72.52;101028.06;6130679;23;20041;-60
2021/03/25 07:37:14;;;;;;;79.18;35.83;;;;;;;2.82;72.64;101022.31;6130139;23;20615;-60
2021/03/25 07:39:48;;;;;;;67.07;32.95;;;;;;;2.87;72.73;101028.47;6130554;23;20009;-57
2021/03/25 07:42:30;;;;;;;51.85;28.55;;;;;;;2.93;72.09;101026.31;6104457;23;20025;-59
2021/03/25 07:45:20;;;;;;;57.03;28.30;;;;;;;3.00;72.30;101032.97;6130431;23;20002;-60
2021/03/25 07:47:46;;;;;;;61.13;31.30;;;;;;;3.06;71.76;101036.38;6129945;23;20033;-59
2021/03/25 07:50:33;;;;;;;52.53;30.63;;;;;;;3.14;71.63;101043.03;6130060;23;19998;-58
2021/03/25 07:53:16;;;;;;;48.60;26.60;;;;;;;3.23;71.85;101044.56;6130156;23;20006;-57
2021/03/25 07:55:42;;;;;;;49.33;27.55;;;;;;;3.26;71.29;101030.00;6129861;23;20310;-59
2021/03/25 07:58:16;;;;;;;49.72;26.95;;;;;;;3.30;70.85;101042.09;6130229;23;20001;-61
2021/03/25 08:00:42;;;;;;;40.63;24.40;;;;;;;3.33;71.02;101037.81;6130461;23;20028;-61
2021/03/25 08:03:18;;;;;;;47.05;26.17;;;;;;;3.40;70.74;101035.31;6130042;23;20263;-55
2021/03/25 08:05:46;;;;;;;47.30;25.95;;;;;;;3.47;70.76;101029.22;6130238;23;20090;-61
2021/03/25 08:08:27;;;;;;;45.65;26.08;;;;;;;3.55;70.46;101036.66;6130162;23;20073;-60
2021/03/25 08:11:12;;;;;;;50.17;24.83;;;;;;;3.65;69.30;101047.38;6130479;23;20014;-58
2021/03/25 08:13:46;;;;;;;43.78;23.40;;;;;;;3.70;69.05;101044.38;6130059;23;19998;-57
2021/03/25 08:16:15;;;;;;;44.22;25.48;;;;;;;3.78;69.04;101040.69;6130052;23;20002;-57
2021/03/25 08:18:40;;;;;;;47.20;24.98;;;;;;;3.84;68.49;101033.81;6130411;23;20029;-60
2021/03/25 08:21:36;;;;;;;40.53;24.33;;;;;;;3.89;67.84;101039.16;6129373;23;20027;-59
2021/03/25 08:24:05;;;;;;;43.88;25.75;;;;;;;3.96;68.25;101038.59;6129928;23;20002;-60
2021/03/25 08:26:54;;;;;;;49.88;29.35;;;;;;;4.02;68.11;101037.19;6129955;23;20012;-60
2021/03/25 08:29:40;;;;;;;51.40;28.33;;;;;;;4.12;67.44;101038.75;6129382;23;20012;-59
2021/03/25 08:32:11;;;;;;;43.88;25.65;;;;;;;4.18;67.62;101038.19;6129678;23;20086;-62
2021/03/25 08:35:06;;;;;;;54.13;26.23;;;;;;;4.25;66.34;101037.63;6129132;23;20053;-62
2021/03/25 08:38:26;;;;;;;44.88;23.42;;;;;;;4.33;66.06;101031.13;6103966;23;20006;-57
2021/03/25 08:41:03;;;;;;;42.58;23.27;;;;;;;4.41;65.55;101024.69;6097586;23;20010;-61
2021/03/25 08:43:35;;;;;;;46.97;24.95;;;;;;;4.48;64.48;101035.25;6094583;23;20111;-59
2021/03/25 08:46:07;;;;;;;44.67;21.48;;;;;;;4.56;63.88;101032.34;6120285;23;20359;-60
2021/03/25 08:48:58;;;;;;;43.17;23.38;;;;;;;4.62;62.69;101030.94;6129638;23;20438;-60
2021/03/25 08:51:41;;;;;;;42.15;22.83;;;;;;;4.72;61.93;101028.88;6127982;23;20010;-61
2021/03/25 08:54:31;;;;;;;37.90;20.90;;;;;;;4.82;61.96;101025.63;6129773;23;20014;-64
2021/03/25 08:57:06;;;;;;;41.08;21.90;;;;;;;4.92;61.10;101027.94;6129821;23;20006;-61
2021/03/25 09:00:18;;;;;;;45.20;23.77;;;;;;;5.04;61.78;101025.16;6130203;23;20005;-63
2021/03/25 09:02:51;;;;;;;33.20;17.17;;;;;;;5.16;61.20;101025.13;6129376;23;20077;-54
2021/03/25 09:05:30;;;;;;;38.03;21.73;;;;;;;5.28;59.86;101030.69;6128829;23;20005;-57
2021/03/25 09:07:59;;;;;;;38.40;20.42;;;;;;;5.43;58.76;101026.34;6129575;23;20006;-62
2021/03/25 09:10:39;;;;;;;34.95;19.52;;;;;;;5.57;59.22;101023.19;6129668;23;20022;-62
2021/03/25 09:13:11;;;;;;;39.40;20.60;;;;;;;5.70;58.74;101027.53;6103973;23;20002;-63
2021/03/25 09:15:37;;;;;;;32.35;17.67;;;;;;;5.83;56.05;101025.53;6129327;23;20266;-61
2021/03/25 09:18:09;;;;;;;31.00;15.20;;;;;;;5.93;55.15;101027.00;6129204;23;20001;-60
2021/03/25 09:20:39;;;;;;;;;;;;;;;6.04;54.91;101030.94;6130196;23;20013;-61
2021/03/25 09:23:29;;;;;;;29.02;13.98;;;;;;;6.14;53.82;101022.84;6129353;23;19909;-60
2021/03/25 09:25:55;;;;;;;19.55;12.48;;;;;;;6.23;52.70;101024.66;6129399;23;20040;-62
2021/03/25 09:28:22;;;;;;;14.73;9.10;;;;;;;6.34;48.97;101014.59;6129020;23;20017;-60
2021/03/25 09:31:15;;;;;;;12.93;8.55;;;;;;;6.47;47.45;101018.91;6129304;23;20390;-61
2021/03/25 09:33:50;;;;;;;12.32;7.25;;;;;;;6.59;46.31;101006.84;6128506;23;20040;-61
2021/03/25 09:36:18;;;;;;;12.65;6.28;;;;;;;6.68;43.81;101010.25;6129169;23;20025;-61
2021/03/25 09:39:11;;;;;;;13.63;8.57;;;;;;;6.83;44.04;101012.22;6129183;23;20274;-63
2021/03/25 09:41:41;;;;;;;14.05;7.95;;;;;;;6.92;43.30;101007.25;6130771;23;20330;-61
2021/03/25 09:46:45;;;;;;;13.77;8.68;;;;;;;7.19;45.19;101004.69;6131565;23;20010;-60
2021/03/25 09:49:20;;;;;;;17.90;8.98;;;;;;;7.31;44.38;101001.75;6130675;23;20057;-59
2021/03/25 09:52:09;;;;;;;15.48;6.97;;;;;;;7.43;42.96;100999.66;6131245;23;20002;-62
2021/03/25 09:54:43;;;;;;;13.82;7.55;;;;;;;7.59;42.79;100999.56;6130820;23;20016;-59
2021/03/25 09:57:17;;;;;;;13.07;6.50;;;;;;;7.78;41.33;100993.16;6131064;23;20056;-59
2021/03/25 09:59:53;;;;;;;32.42;24.55;;;;;;;7.96;42.65;100999.13;6131435;23;20002;-63
2021/03/25 10:02:37;;;;;;;19.58;9.60;;;;;;;8.08;41.40;100990.56;6131006;23;20068;-60
2021/03/25 10:05:33;;;;;;;11.80;5.63;;;;;;;8.24;40.48;100990.44;6131016;23;20097;-65
2021/03/25 10:08:28;;;;;;;10.38;6.20;;;;;;;8.38;38.89;100989.91;6130869;23;20010;-64
2021/03/25 10:10:54;;;;;;;9.23;5.25;;;;;;;8.46;40.19;100986.03;6105541;23;20440;-64
2021/03/25 10:13:29;;;;;;;11.18;6.20;;;;;;;8.56;39.76;100988.25;6131258;23;20009;-62
2021/03/25 10:15:58;;;;;;;9.57;4.95;;;;;;;8.67;40.06;100980.81;6130889;23;20006;-64
2021/03/25 10:18:23;;;;;;;17.48;10.00;;;;;;;8.78;39.50;100981.00;6130510;23;20056;-57
2021/03/25 10:21:17;;;;;;;9.70;5.50;;;;;;;8.88;37.68;100983.97;6131038;23;20006;-57
2021/03/25 10:23:48;;;;;;;30.33;7.40;;;;;;;8.94;37.94;100976.84;6130991;23;20053;-59
2021/03/25 10:26:37;;;;;;;12.48;5.80;;;;;;;9.05;37.52;100981.81;6130534;23;20236;-63
2021/03/25 10:29:09;;;;;;;10.20;5.55;;;;;;;9.14;38.58;100971.94;6130999;23;20030;-57
2021/03/25 10:31:57;;;;;;;10.25;5.65;;;;;;;9.27;39.16;100978.91;6130670;23;20064;-63
2021/03/25 10:34:30;;;;;;;12.13;5.60;;;;;;;9.40;37.24;100976.69;6131082;23;20367;-57
2021/03/25 10:37:02;;;;;;;10.30;5.25;;;;;;;9.51;38.55;100976.81;6130769;23;20077;-58
2021/03/25 10:39:31;;;;;;;10.40;5.40;;;;;;;9.62;37.55;100976.97;6131070;23;20002;-57
2021/03/25 10:42:11;;;;;;;9.40;5.82;;;;;;;9.76;36.48;100961.09;6130547;23;20025;-57
2021/03/25 10:44:37;;;;;;;9.57;5.57;;;;;;;9.95;37.33;100959.31;6130762;23;20004;-59
2021/03/25 10:47:05;;;;;;;8.50;4.93;;;;;;;10.06;37.38;100963.81;6130656;23;20002;-57
2021/03/25 10:49:42;;;;;;;9.95;5.32;;;;;;;10.15;36.04;100961.53;6131010;23;20006;-57
2021/03/25 10:52:17;;;;;;;7.13;5.10;;;;;;;10.23;37.48;100959.63;6130763;23;20056;-57
2021/03/25 10:54:43;;;;;;;49.17;6.95;;;;;;;10.31;35.97;100957.69;6130602;23;20033;-57
2021/03/25 10:57:14;;;;;;;17.23;8.02;;;;;;;10.49;37.13;100942.59;6130707;23;20001;-57
2021/03/25 10:59:48;;;;;;;15.27;6.70;;;;;;;10.63;35.67;100947.53;6131213;23;20010;-60
2021/03/25 11:02:20;;;;;;;10.45;5.63;;;;;;;10.75;35.14;100944.41;6131130;23;20037;-60
2021/03/25 11:04:45;;;;;;;11.32;5.85;;;;;;;10.83;34.07;100943.25;6131069;23;19998;-60
2021/03/25 11:07:19;;;;;;;10.75;5.85;;;;;;;10.84;33.96;100936.44;6130642;23;19998;-58
2021/03/25 11:09:58;;;;;;;10.73;6.00;;;;;;;10.83;32.42;100939.63;6130678;23;20009;-59
2021/03/25 11:12:28;;;;;;;17.27;8.38;;;;;;;10.75;33.20;100937.97;6130677;23;20010;-60
2021/03/25 11:15:02;;;;;;;16.45;8.77;;;;;;;10.66;33.35;100937.50;6130300;23;20005;-58
2021/03/25 11:17:36;;;;;;;12.70;6.50;;;;;;;10.66;34.45;100938.28;6130634;23;20002;-61
2021/03/25 11:20:06;;;;;;;16.25;8.93;;;;;;;10.68;34.23;100933.13;6130344;23;20008;-57
2021/03/25 11:22:33;;;;;;;13.38;8.07;;;;;;;10.75;33.05;100924.72;6130528;23;20006;-57
2021/03/25 11:25:01;;;;;;;11.57;5.60;;;;;;;10.73;34.28;100923.50;6129832;23;20425;-55
2021/03/25 11:27:28;;;;;;;8.93;5.85;;;;;;;10.76;33.77;100925.53;6130370;23;20084;-58
2021/03/25 11:30:04;;;;;;;15.98;6.22;;;;;;;10.80;34.01;100921.53;6130266;23;20418;-54
2021/03/25 11:32:39;;;;;;;10.32;7.20;;;;;;;10.84;33.38;100919.56;6130306;23;20002;-56
2021/03/25 11:35:29;;;;;;;17.38;7.72;;;;;;;10.87;34.94;100917.16;6130683;23;20384;-57
2021/03/25 11:37:56;;;;;;;12.80;6.68;;;;;;;10.92;35.17;100913.97;6130306;23;20013;-56
2021/03/25 11:40:38;;;;;;;9.80;5.78;;;;;;;10.95;34.33;100908.38;6130253;23;20092;-56
2021/03/25 11:43:17;;;;;;;12.00;6.85;;;;;;;10.99;34.40;100908.41;6129976;23;20022;-59
2021/03/25 11:45:46;;;;;;;35.67;21.77;;;;;;;10.94;35.58;100908.75;6130653;23;20029;-59
2021/03/25 11:48:33;;;;;;;18.90;11.13;;;;;;;10.96;36.79;100903.56;6130400;23;20002;-60
2021/03/25 11:51:16;;;;;;;17.27;8.50;;;;;;;10.97;35.83;100910.81;6129939;23;20424;-60
2021/03/25 11:53:45;;;;;;;13.80;5.95;;;;;;;10.94;36.23;100901.13;6103794;23;20010;-55
2021/03/25 11:56:25;;;;;;;65.50;30.35;;;;;;;10.97;36.55;100905.19;6129941;23;20014;-57